Festivo — EAEQ — position and weather

sailwx.info

Track history (hours):
 
Tides and Currents Weather Stations Pressure Air Temp Water Temp Dewpoint Dewpoint Depression Visibility Wind Speed Wind Dir Waves Ship Positions

Festivo

Last reported at 2018-Jan-21 03:40 UTC. Time now 2018-Jan-23 10:12 UTC.
Position N 35°31' W 003°01'.

Length 136 m; draft 4.5 m.

Type: Cargo ship. MMSI: 225410000.

Date/timePositionNaut miles runAvg speedWind from/ knotsBaromVisibWave heightAir tempDewpointWater temp
2018-Jan-21 03:40N 35°31' W 003°01'1 8.1
2018-Jan-21 03:30N 35°31' W 003°03'4 7.9
2018-Jan-21 03:00N 35°31' W 003°08'6 8.8
2018-Jan-21 02:21N 35°32' W 003°15'5 8.5
2018-Jan-21 01:46N 35°33' W 003°21'38 9.2
2018-Jan-20 21:37N 35°41' W 004°06'110.2
2018-Jan-20 21:30N 35°42' W 004°08'1110.2
2018-Jan-20 20:24N 35°46' W 004°21'3811.0
2018-Jan-20 16:56N 35°53' W 005°07'812.7
2018-Jan-20 16:20N 35°55' W 005°16'3 9.1
2018-Jan-20 16:00N 35°54' W 005°19'0 0.7
2018-Jan-20 15:26N 35°54' W 005°19'0 0.0
2018-Jan-20 14:59N 35°54' W 005°19'0 0.0
2018-Jan-20 14:29N 35°54' W 005°19'0 0.0
2018-Jan-20 13:59N 35°54' W 005°19'0 0.0
2018-Jan-20 13:29N 35°54' W 005°19'0 0.0
2018-Jan-20 12:59N 35°54' W 005°19'0 0.0
2018-Jan-20 12:29N 35°54' W 005°19'0 0.0
2018-Jan-20 11:59N 35°54' W 005°19'0 0.0
2018-Jan-20 11:29N 35°54' W 005°19'0 0.0
2018-Jan-20 10:59N 35°54' W 005°19'0 0.0
2018-Jan-20 10:29N 35°54' W 005°19'0 0.0
2018-Jan-20 09:59N 35°54' W 005°19'0 0.0
2018-Jan-20 09:29N 35°54' W 005°19'0 0.0
2018-Jan-20 08:59N 35°54' W 005°19'0 0.4
2018-Jan-20 08:30N 35°54' W 005°19'2 3.1
2018-Jan-20 08:00N 35°55' W 005°18'49 8.6
2018-Jan-20 02:20N 36°29' W 004°35'310.8
2018-Jan-20 02:00N 36°31' W 004°32'510.9
2018-Jan-20 01:30N 36°35' W 004°27'  
2018-Jan-11 12:54N 36°14' W 004°47'712.3
2018-Jan-11 12:21N 36°10' W 004°53'513.1
2018-Jan-11 11:59N 36°07' W 004°57'613.2
2018-Jan-11 11:30N 36°04' W 005°04'713.5
2018-Jan-11 10:59N 35°59' W 005°11'612.6
2018-Jan-11 10:30N 35°56' W 005°17'3 5.5
2018-Jan-11 09:59N 35°54' W 005°19'0 0.0
2018-Jan-11 09:29N 35°54' W 005°19'0 0.0
2018-Jan-11 08:59N 35°54' W 005°19'0 0.0
2018-Jan-11 08:29N 35°54' W 005°19'1 1.3
2018-Jan-11 08:00N 35°54' W 005°19'4 8.6
2018-Jan-11 07:30N 35°57' W 005°15'4 8.9
2018-Jan-11 07:00N 35°59' W 005°11'4 8.3
2018-Jan-11 06:30N 36°01' W 005°06'4 8.3
2018-Jan-11 06:00N 36°03' W 005°02'4 8.1
2018-Jan-11 05:29N 36°07' W 004°59'5 9.1
2018-Jan-11 04:59N 36°11' W 004°56'4 8.5
2018-Jan-11 04:30N 36°14' W 004°52'5 9.1
2018-Jan-11 03:54N 36°17' W 004°47'  
Track history (hours):
 
Tides and Currents Weather Stations Pressure Air Temp Water Temp Dewpoint Dewpoint Depression Visibility Wind Speed Wind Dir Waves Ship Positions

Festivo

Last reported at 2018-Jan-21 03:40 UTC. Time now 2018-Jan-23 10:12 UTC.
Position N 35°31' W 003°01'.

Length 136 m; draft 4.5 m.

Type: Cargo ship. MMSI: 225410000.

Date/timePositionNaut miles runAvg speedWind from/ knotsBaromVisibWave heightAir tempDewpointWater temp
2018-Jan-21 03:40N 35°31' W 003°01'1 8.1
2018-Jan-21 03:30N 35°31' W 003°03'4 7.9
2018-Jan-21 03:00N 35°31' W 003°08'6 8.8
2018-Jan-21 02:21N 35°32' W 003°15'5 8.5
2018-Jan-21 01:46N 35°33' W 003°21'38 9.2
2018-Jan-20 21:37N 35°41' W 004°06'110.2
2018-Jan-20 21:30N 35°42' W 004°08'1110.2
2018-Jan-20 20:24N 35°46' W 004°21'3811.0
2018-Jan-20 16:56N 35°53' W 005°07'812.7
2018-Jan-20 16:20N 35°55' W 005°16'3 9.1
2018-Jan-20 16:00N 35°54' W 005°19'0 0.7
2018-Jan-20 15:26N 35°54' W 005°19'0 0.0
2018-Jan-20 14:59N 35°54' W 005°19'0 0.0
2018-Jan-20 14:29N 35°54' W 005°19'0 0.0
2018-Jan-20 13:59N 35°54' W 005°19'0 0.0
2018-Jan-20 13:29N 35°54' W 005°19'0 0.0
2018-Jan-20 12:59N 35°54' W 005°19'0 0.0
2018-Jan-20 12:29N 35°54' W 005°19'0 0.0
2018-Jan-20 11:59N 35°54' W 005°19'0 0.0
2018-Jan-20 11:29N 35°54' W 005°19'0 0.0
2018-Jan-20 10:59N 35°54' W 005°19'0 0.0
2018-Jan-20 10:29N 35°54' W 005°19'0 0.0
2018-Jan-20 09:59N 35°54' W 005°19'0 0.0
2018-Jan-20 09:29N 35°54' W 005°19'0 0.0
2018-Jan-20 08:59N 35°54' W 005°19'0 0.4
2018-Jan-20 08:30N 35°54' W 005°19'2 3.1
2018-Jan-20 08:00N 35°55' W 005°18'49 8.6
2018-Jan-20 02:20N 36°29' W 004°35'310.8
2018-Jan-20 02:00N 36°31' W 004°32'510.9
2018-Jan-20 01:30N 36°35' W 004°27'  
2018-Jan-11 12:54N 36°14' W 004°47'712.3
2018-Jan-11 12:21N 36°10' W 004°53'513.1
2018-Jan-11 11:59N 36°07' W 004°57'613.2
2018-Jan-11 11:30N 36°04' W 005°04'713.5
2018-Jan-11 10:59N 35°59' W 005°11'612.6
2018-Jan-11 10:30N 35°56' W 005°17'3 5.5
2018-Jan-11 09:59N 35°54' W 005°19'0 0.0
2018-Jan-11 09:29N 35°54' W 005°19'0 0.0
2018-Jan-11 08:59N 35°54' W 005°19'0 0.0
2018-Jan-11 08:29N 35°54' W 005°19'1 1.3
2018-Jan-11 08:00N 35°54' W 005°19'4 8.6
2018-Jan-11 07:30N 35°57' W 005°15'4 8.9
2018-Jan-11 07:00N 35°59' W 005°11'4 8.3
2018-Jan-11 06:30N 36°01' W 005°06'4 8.3
2018-Jan-11 06:00N 36°03' W 005°02'4 8.1
2018-Jan-11 05:29N 36°07' W 004°59'5 9.1
2018-Jan-11 04:59N 36°11' W 004°56'4 8.5
2018-Jan-11 04:30N 36°14' W 004°52'5 9.1
2018-Jan-11 03:54N 36°17' W 004°47'  

Dump ship's entire track history